createdAt,value
2022-10-05T00:00:49.819Z,9.12
2022-10-05T00:03:25.578Z,9.06
2022-10-05T00:05:58.171Z,9.03
2022-10-05T00:08:32.354Z,9.07
2022-10-05T00:11:07.596Z,9.02
2022-10-05T00:13:40.898Z,9.11
2022-10-05T00:16:17.474Z,9.11
2022-10-05T00:18:53.924Z,9.10
2022-10-05T00:21:27.813Z,9.06
2022-10-05T00:24:01.646Z,9.03
2022-10-05T00:26:34.212Z,9.11
2022-10-05T00:29:18.606Z,9.12
2022-10-05T00:31:51.093Z,9.11
2022-10-05T00:34:25.331Z,9.13
2022-10-05T00:36:58.850Z,8.93
2022-10-05T00:39:31.969Z,9.11
2022-10-05T00:42:16.935Z,8.98
2022-10-05T00:44:57.241Z,9.12
2022-10-05T00:47:40.409Z,8.99
2022-10-05T00:50:53.270Z,9.10
2022-10-05T00:53:43.099Z,8.97
2022-10-05T00:56:32.073Z,9.11
2022-10-05T00:59:13.878Z,9.11
2022-10-05T01:01:57.479Z,9.08
2022-10-05T01:04:36.838Z,9.06
2022-10-05T01:07:19.820Z,9.07
2022-10-05T01:09:57.925Z,9.10
2022-10-05T01:12:35.445Z,9.11
2022-10-05T01:15:13.053Z,9.11
2022-10-05T01:17:52.315Z,9.15
2022-10-05T01:20:35.697Z,9.14
2022-10-05T01:23:32.135Z,9.15
2022-10-05T01:26:24.244Z,9.13
2022-10-05T01:29:04.456Z,9.09
2022-10-05T01:31:42.893Z,9.06
2022-10-05T01:34:26.164Z,9.09
2022-10-05T01:37:04.787Z,9.13
2022-10-05T01:39:46.767Z,9.15
2022-10-05T01:42:29.457Z,9.13
2022-10-05T01:45:10.967Z,9.13
2022-10-05T01:47:45.892Z,9.14
2022-10-05T01:50:28.952Z,9.14
2022-10-05T01:53:13.054Z,9.11
2022-10-05T01:55:52.888Z,9.15
2022-10-05T01:58:35.504Z,9.10
2022-10-05T02:01:17.629Z,9.10
2022-10-05T02:03:54.492Z,9.12
2022-10-05T02:06:33.175Z,9.11
2022-10-05T02:09:13.089Z,9.12
2022-10-05T02:11:57.825Z,9.12
2022-10-05T02:14:36.251Z,9.10
2022-10-05T02:17:15.251Z,9.11
2022-10-05T02:19:51.237Z,9.08
2022-10-05T02:22:30.260Z,9.12
2022-10-05T02:25:09.204Z,9.09
2022-10-05T02:27:49.376Z,9.10
2022-10-05T02:30:22.166Z,9.10
2022-10-05T02:33:02.807Z,8.93
2022-10-05T02:35:35.367Z,9.00
2022-10-05T02:38:14.735Z,9.06
2022-10-05T02:40:57.397Z,9.04
2022-10-05T02:43:45.384Z,9.05
2022-10-05T02:46:28.634Z,9.04
2022-10-05T02:49:15.515Z,9.05
2022-10-05T02:51:56.820Z,9.03
2022-10-05T02:54:47.101Z,9.00
2022-10-05T02:57:26.473Z,8.97
2022-10-05T03:00:07.058Z,8.97
2022-10-05T03:02:45.126Z,8.98
2022-10-05T03:05:25.778Z,8.95
2022-10-05T03:08:03.928Z,8.99
2022-10-05T03:10:43.560Z,8.98
2022-10-05T03:13:26.233Z,8.99
2022-10-05T03:16:24.355Z,9.02
2022-10-05T03:19:10.363Z,9.01
2022-10-05T03:21:54.126Z,9.01
2022-10-05T03:24:52.298Z,8.99
2022-10-05T03:27:37.953Z,9.01
2022-10-05T03:30:17.032Z,8.98
2022-10-05T03:33:02.530Z,8.99
2022-10-05T03:35:45.679Z,8.99
2022-10-05T03:38:28.449Z,8.96
2022-10-05T03:41:11.188Z,8.96
2022-10-05T03:44:05.903Z,8.97
2022-10-05T03:46:50.304Z,9.02
2022-10-05T03:49:29.521Z,9.00
2022-10-05T03:52:09.518Z,9.04
2022-10-05T03:54:47.853Z,8.98
2022-10-05T03:57:23.522Z,9.06
2022-10-05T04:00:02.746Z,9.00
2022-10-05T04:02:53.389Z,9.04
2022-10-05T04:05:30.558Z,9.07
2022-10-05T04:08:07.889Z,9.07
2022-10-05T04:10:46.836Z,9.03
2022-10-05T04:13:27.106Z,9.04
2022-10-05T04:16:06.197Z,9.09
2022-10-05T04:18:44.939Z,9.10
2022-10-05T04:21:23.961Z,9.10
2022-10-05T04:24:03.707Z,9.12
2022-10-05T04:26:43.921Z,9.13
2022-10-05T04:29:27.089Z,9.13
2022-10-05T04:32:27.956Z,9.15
2022-10-05T04:35:15.055Z,9.11
2022-10-05T04:37:54.000Z,9.16
2022-10-05T04:40:47.319Z,9.16
2022-10-05T04:43:32.675Z,9.14
2022-10-05T04:46:18.760Z,9.17
2022-10-05T04:49:08.535Z,9.16
2022-10-05T04:51:52.270Z,9.14
2022-10-05T04:54:42.261Z,9.18
2022-10-05T04:57:21.507Z,9.20
2022-10-05T05:00:13.884Z,9.20
2022-10-05T05:03:07.830Z,9.23
2022-10-05T05:06:15.415Z,9.26
2022-10-05T05:09:02.634Z,9.23
2022-10-05T05:11:45.388Z,9.31
2022-10-05T05:14:41.419Z,9.30
2022-10-05T05:17:28.776Z,9.36
2022-10-05T05:20:16.621Z,9.38
2022-10-05T05:22:54.268Z,9.34
2022-10-05T05:25:39.265Z,9.38
2022-10-05T05:28:20.651Z,9.46
2022-10-05T05:31:04.118Z,9.37
2022-10-05T05:33:46.942Z,9.52
2022-10-05T05:36:40.748Z,9.55
2022-10-05T05:39:24.392Z,9.55
2022-10-05T05:42:10.267Z,9.49
2022-10-05T05:44:46.703Z,9.57
2022-10-05T05:47:24.720Z,9.58
2022-10-05T05:50:13.629Z,9.56
2022-10-05T05:52:50.606Z,9.61
2022-10-05T05:55:30.087Z,9.63
2022-10-05T05:58:14.052Z,9.64
2022-10-05T06:00:52.415Z,9.62
2022-10-05T06:03:38.800Z,9.62
2022-10-05T06:06:17.338Z,9.68
2022-10-05T06:08:57.063Z,9.69
2022-10-05T06:11:43.299Z,9.70
2022-10-05T06:14:25.277Z,9.62
2022-10-05T06:17:02.214Z,9.69
2022-10-05T06:19:37.771Z,9.69
2022-10-05T06:22:20.015Z,9.72
2022-10-05T06:25:03.739Z,9.73
2022-10-05T06:27:37.965Z,9.72
2022-10-05T06:30:16.180Z,9.68
2022-10-05T06:33:08.426Z,9.66
2022-10-05T06:35:54.143Z,9.64
2022-10-05T06:38:41.636Z,9.64
2022-10-05T06:41:24.084Z,9.61
2022-10-05T06:43:59.431Z,9.68
2022-10-05T06:47:02.628Z,9.67
2022-10-05T06:50:15.285Z,9.64
2022-10-05T06:53:31.474Z,9.63
2022-10-05T06:56:12.397Z,9.60
2022-10-05T06:58:56.889Z,9.55
2022-10-05T07:01:43.146Z,9.54
2022-10-05T07:04:40.914Z,9.59
2022-10-05T07:07:22.930Z,9.59
2022-10-05T07:10:10.748Z,9.58
2022-10-05T07:12:59.127Z,9.66
2022-10-05T07:15:42.301Z,9.72
2022-10-05T07:18:34.123Z,9.79
2022-10-05T07:21:15.613Z,9.89
2022-10-05T07:23:58.599Z,9.93
2022-10-05T07:26:36.878Z,10.11
2022-10-05T07:29:22.160Z,10.20
2022-10-05T07:32:07.605Z,10.33
2022-10-05T07:34:54.000Z,10.44
2022-10-05T07:38:08.234Z,10.45
2022-10-05T07:40:45.682Z,10.42
2022-10-05T07:43:40.251Z,10.37
2022-10-05T07:46:38.208Z,10.34
2022-10-05T07:49:17.706Z,10.23
2022-10-05T07:51:56.115Z,10.26
2022-10-05T07:54:38.215Z,10.25
2022-10-05T07:57:21.435Z,10.17
2022-10-05T08:00:02.009Z,10.20
2022-10-05T08:02:52.770Z,10.20
2022-10-05T08:05:29.057Z,10.19
2022-10-05T08:08:11.651Z,10.16
2022-10-05T08:10:57.452Z,10.23
2022-10-05T08:13:35.831Z,10.26
2022-10-05T08:16:14.721Z,10.28
2022-10-05T08:18:57.259Z,10.34
2022-10-05T08:21:35.205Z,10.32
2022-10-05T08:24:19.353Z,10.41
2022-10-05T08:26:55.578Z,10.38
2022-10-05T08:29:34.719Z,10.46
2022-10-05T08:32:16.386Z,10.44
2022-10-05T08:34:55.462Z,10.46
2022-10-05T08:37:32.419Z,10.38
2022-10-05T08:40:28.250Z,10.35
2022-10-05T08:43:13.183Z,10.29
2022-10-05T08:46:20.796Z,10.12
2022-10-05T08:49:36.284Z,10.15
2022-10-05T08:52:26.642Z,10.05
2022-10-05T08:55:21.699Z,10.09
2022-10-05T08:58:17.718Z,10.12
2022-10-05T09:00:59.853Z,10.13
2022-10-05T09:04:07.518Z,10.17
2022-10-05T09:07:17.529Z,10.21
2022-10-05T09:10:22.809Z,9.92
2022-10-05T09:13:41.249Z,10.13
2022-10-05T09:16:47.051Z,10.18
2022-10-05T09:19:55.743Z,10.19
2022-10-05T09:22:46.518Z,10.24
2022-10-05T09:25:23.764Z,10.27
2022-10-05T09:27:59.440Z,10.29
2022-10-05T09:30:52.734Z,10.24
2022-10-05T09:33:58.084Z,10.41
2022-10-05T09:36:59.788Z,10.45
2022-10-05T09:39:50.072Z,10.50
2022-10-05T09:43:08.367Z,10.53
2022-10-05T09:46:08.683Z,10.63
2022-10-05T09:49:08.070Z,10.70
2022-10-05T09:52:09.397Z,10.73
2022-10-05T09:55:21.069Z,10.84
2022-10-05T09:58:12.285Z,10.93
2022-10-05T10:01:09.425Z,11.00
2022-10-05T10:04:08.256Z,11.12
2022-10-05T10:07:07.762Z,11.18
2022-10-05T10:09:59.948Z,11.18
2022-10-05T10:12:57.195Z,11.14
2022-10-05T10:16:03.798Z,11.07
2022-10-05T10:19:30.149Z,11.07
2022-10-05T10:22:25.055Z,11.12
2022-10-05T10:25:21.127Z,11.14
2022-10-05T10:28:08.306Z,11.25
2022-10-05T10:31:08.285Z,11.31
2022-10-05T10:34:08.533Z,11.36
2022-10-05T10:37:03.704Z,11.37
2022-10-05T10:39:58.813Z,11.34
2022-10-05T10:42:46.511Z,11.30
2022-10-05T10:45:27.537Z,11.36
2022-10-05T10:48:05.135Z,11.21
2022-10-05T10:51:00.649Z,11.28
2022-10-05T10:54:09.249Z,11.12
2022-10-05T10:57:06.341Z,11.20
2022-10-05T11:00:15.825Z,11.21
2022-10-05T11:03:14.499Z,11.19
2022-10-05T11:06:26.155Z,11.19
2022-10-05T11:09:28.404Z,11.18
2022-10-05T11:12:54.612Z,11.15
2022-10-05T11:15:53.858Z,11.14
2022-10-05T11:18:42.670Z,11.12
2022-10-05T11:21:37.097Z,11.07
2022-10-05T11:24:54.871Z,10.98
2022-10-05T11:28:08.572Z,10.98
2022-10-05T11:31:11.546Z,10.97
2022-10-05T11:34:28.222Z,10.96
2022-10-05T11:37:29.907Z,10.90
2022-10-05T11:40:26.927Z,10.89
2022-10-05T11:43:22.812Z,10.85
2022-10-05T11:46:08.638Z,10.85
2022-10-05T11:49:08.905Z,10.87
2022-10-05T11:52:06.715Z,10.91
2022-10-05T11:55:10.922Z,10.96
2022-10-05T11:57:51.995Z,11.00
2022-10-05T12:00:28.339Z,11.00
2022-10-05T12:03:20.570Z,11.05
2022-10-05T12:06:16.094Z,11.07
2022-10-05T12:09:03.316Z,11.08
2022-10-05T12:11:57.701Z,11.12
2022-10-05T12:14:44.529Z,11.11
2022-10-05T12:17:22.722Z,11.13
2022-10-05T12:19:59.330Z,11.13
2022-10-05T12:22:37.674Z,11.13
2022-10-05T12:25:25.917Z,11.11
2022-10-05T12:28:05.024Z,11.09
2022-10-05T12:31:10.409Z,11.07
2022-10-05T12:33:49.766Z,11.05
2022-10-05T12:36:46.202Z,11.04
2022-10-05T12:39:30.153Z,10.97
2022-10-05T12:42:12.688Z,11.02
2022-10-05T12:45:05.399Z,11.02
2022-10-05T12:47:55.312Z,11.02
2022-10-05T12:50:34.741Z,11.00
2022-10-05T12:53:29.075Z,11.02
2022-10-05T12:56:08.638Z,11.03
2022-10-05T12:58:51.943Z,10.99
2022-10-05T13:01:34.391Z,11.03
2022-10-05T13:04:22.345Z,11.02
2022-10-05T13:07:12.233Z,11.05
2022-10-05T13:09:53.654Z,11.04
2022-10-05T13:12:37.074Z,11.04
2022-10-05T13:15:19.512Z,11.01
2022-10-05T13:18:03.889Z,10.98
2022-10-05T13:20:44.872Z,10.95
2022-10-05T13:23:25.129Z,10.90
2022-10-05T13:26:03.354Z,10.86
2022-10-05T13:28:42.105Z,10.85
2022-10-05T13:31:21.152Z,10.82
2022-10-05T13:34:06.836Z,10.85
2022-10-05T13:36:54.409Z,10.82
2022-10-05T13:39:51.415Z,10.78
2022-10-05T13:42:33.190Z,10.80
2022-10-05T13:45:16.016Z,10.76
2022-10-05T13:48:00.067Z,10.75
2022-10-05T13:50:35.157Z,10.70
2022-10-05T13:53:21.707Z,10.75
2022-10-05T13:56:00.511Z,10.71
2022-10-05T13:58:40.670Z,10.71
2022-10-05T14:01:17.306Z,10.68
2022-10-05T14:04:17.159Z,10.64
2022-10-05T14:06:50.213Z,10.59
2022-10-05T14:09:33.630Z,10.50
2022-10-05T14:12:20.488Z,10.48
2022-10-05T14:14:54.564Z,10.45
2022-10-05T14:17:37.863Z,10.40
2022-10-05T14:20:23.869Z,10.40
2022-10-05T14:23:00.237Z,10.38
2022-10-05T14:25:47.084Z,10.35
2022-10-05T14:28:28.609Z,10.36
2022-10-05T14:31:04.298Z,10.39
2022-10-05T14:33:37.078Z,10.38
2022-10-05T14:36:16.629Z,10.34
2022-10-05T14:38:56.240Z,10.38
2022-10-05T14:41:35.610Z,10.37
2022-10-05T14:44:27.653Z,10.35
2022-10-05T14:47:17.333Z,10.34
2022-10-05T14:50:10.829Z,10.34
2022-10-05T14:52:51.632Z,10.33
2022-10-05T14:55:44.928Z,10.26
2022-10-05T14:58:33.463Z,10.30
2022-10-05T15:01:14.861Z,10.28
2022-10-05T15:03:54.084Z,10.25
2022-10-05T15:06:33.362Z,10.22
2022-10-05T15:09:29.184Z,10.25
2022-10-05T15:12:03.441Z,10.19
2022-10-05T15:14:40.915Z,10.20
2022-10-05T15:17:18.328Z,10.22
2022-10-05T15:19:59.618Z,10.21
2022-10-05T15:22:41.648Z,10.20
2022-10-05T15:25:17.616Z,10.12
2022-10-05T15:28:05.975Z,10.17
2022-10-05T15:30:48.114Z,10.12
2022-10-05T15:33:29.632Z,10.15
2022-10-05T15:36:10.283Z,10.16
2022-10-05T15:38:59.463Z,10.16
2022-10-05T15:41:49.376Z,10.09
2022-10-05T15:44:36.661Z,10.16
2022-10-05T15:47:19.341Z,10.17
2022-10-05T15:50:05.684Z,10.16
2022-10-05T15:52:44.481Z,10.16
2022-10-05T15:55:27.021Z,10.15
2022-10-05T15:58:19.002Z,10.17
2022-10-05T16:00:58.889Z,10.14
2022-10-05T16:03:44.122Z,10.12
2022-10-05T16:06:57.013Z,10.11
2022-10-05T16:09:50.142Z,10.06
2022-10-05T16:12:32.489Z,10.08
2022-10-05T16:15:17.777Z,10.09
2022-10-05T16:18:14.350Z,10.03
2022-10-05T16:20:51.743Z,10.03
2022-10-05T16:23:36.590Z,10.05
2022-10-05T16:26:22.951Z,10.08
2022-10-05T16:29:02.852Z,10.07
2022-10-05T16:31:44.561Z,10.06
2022-10-05T16:34:29.811Z,10.05
2022-10-05T16:37:10.268Z,10.07
2022-10-05T16:39:55.541Z,10.07
2022-10-05T16:42:40.200Z,10.02
2022-10-05T16:45:45.129Z,9.98
2022-10-05T16:48:26.621Z,10.07
2022-10-05T16:51:19.957Z,10.06
2022-10-05T16:54:05.857Z,10.04
2022-10-05T16:56:42.952Z,10.12
2022-10-05T16:59:47.830Z,10.14
2022-10-05T17:02:42.565Z,10.10
2022-10-05T17:05:33.164Z,10.10
2022-10-05T17:08:33.682Z,10.12
2022-10-05T17:11:17.266Z,10.05
2022-10-05T17:14:18.774Z,10.09
2022-10-05T17:17:16.170Z,9.91
2022-10-05T17:20:07.300Z,10.04
2022-10-05T17:22:51.377Z,10.07
2022-10-05T17:25:34.643Z,10.03
2022-10-05T17:28:24.515Z,10.04
2022-10-05T17:31:15.390Z,10.01
2022-10-05T17:34:26.765Z,10.06
2022-10-05T17:37:16.907Z,10.04
2022-10-05T17:39:53.019Z,9.98
2022-10-05T17:42:57.516Z,10.05
2022-10-05T17:45:53.806Z,10.05
2022-10-05T17:49:06.813Z,10.05
2022-10-05T17:52:19.825Z,10.02
2022-10-05T17:55:21.168Z,10.02
2022-10-05T17:57:58.864Z,10.01
2022-10-05T18:00:40.513Z,9.98
2022-10-05T18:03:38.086Z,10.02
2022-10-05T18:06:37.964Z,10.00
2022-10-05T18:09:50.616Z,9.96
2022-10-05T18:12:39.933Z,10.04
2022-10-05T18:15:33.147Z,10.04
2022-10-05T18:18:41.439Z,9.98
2022-10-05T18:21:38.257Z,10.02
2022-10-05T18:24:47.101Z,10.02
2022-10-05T18:27:52.857Z,9.99
2022-10-05T18:30:26.800Z,9.98
2022-10-05T18:33:37.692Z,9.91
2022-10-05T18:36:27.477Z,9.96
2022-10-05T18:39:13.632Z,9.85
2022-10-05T18:41:57.188Z,9.96
2022-10-05T18:44:39.794Z,9.83
2022-10-05T18:47:18.777Z,9.96
2022-10-05T18:50:12.990Z,9.75
2022-10-05T18:53:08.744Z,9.79
2022-10-05T18:55:53.441Z,9.66
2022-10-05T18:58:35.986Z,9.96
2022-10-05T19:01:38.567Z,9.82
2022-10-05T19:04:22.733Z,9.94
2022-10-05T19:07:07.890Z,9.67
2022-10-05T19:10:08.868Z,9.87
2022-10-05T19:12:53.888Z,9.78
2022-10-05T19:15:35.779Z,9.60
2022-10-05T19:18:36.685Z,9.80
2022-10-05T19:21:22.486Z,9.59
2022-10-05T19:24:27.733Z,9.80
2022-10-05T19:27:07.020Z,9.79
2022-10-05T19:29:55.932Z,9.82
2022-10-05T19:32:39.602Z,9.78
2022-10-05T19:35:22.161Z,9.74
2022-10-05T19:38:14.453Z,9.59
2022-10-05T19:40:57.331Z,9.82
2022-10-05T19:43:54.285Z,9.79
2022-10-05T19:46:49.659Z,9.85
2022-10-05T19:49:43.334Z,9.87
2022-10-05T19:52:22.552Z,9.86
2022-10-05T19:55:14.115Z,9.85
2022-10-05T19:57:48.246Z,9.86
2022-10-05T20:00:24.813Z,9.77
2022-10-05T20:03:12.284Z,9.83
2022-10-05T20:05:45.484Z,9.84
2022-10-05T20:08:19.921Z,9.88
2022-10-05T20:11:12.178Z,9.88
2022-10-05T20:14:10.346Z,9.85
2022-10-05T20:17:01.429Z,9.87
2022-10-05T20:19:57.958Z,9.87
2022-10-05T20:22:34.502Z,9.83
2022-10-05T20:25:33.075Z,9.82
2022-10-05T20:28:07.458Z,9.84
2022-10-05T20:30:39.985Z,9.83
2022-10-05T20:33:14.776Z,9.84
2022-10-05T20:35:48.766Z,9.89
2022-10-05T20:38:21.629Z,9.90
2022-10-05T20:40:54.166Z,9.87
2022-10-05T20:43:26.600Z,9.90
2022-10-05T20:46:00.167Z,9.90
2022-10-05T20:48:32.865Z,9.90
2022-10-05T20:51:06.924Z,9.90
2022-10-05T20:53:39.245Z,9.81
2022-10-05T20:56:11.808Z,9.86
2022-10-05T20:58:44.481Z,9.59
2022-10-05T21:01:19.163Z,9.85
2022-10-05T21:03:51.765Z,9.87
2022-10-05T21:06:29.586Z,9.88
2022-10-05T21:09:02.207Z,9.88
2022-10-05T21:11:34.651Z,9.88
2022-10-05T21:14:07.090Z,9.78
2022-10-05T21:16:41.399Z,9.87
2022-10-05T21:19:15.059Z,9.87
2022-10-05T21:21:48.978Z,9.87
2022-10-05T21:24:21.313Z,9.88
2022-10-05T21:26:56.964Z,9.84
2022-10-05T21:29:29.752Z,9.80
2022-10-05T21:32:02.259Z,9.84
2022-10-05T21:34:34.904Z,9.84
2022-10-05T21:37:09.278Z,9.86
2022-10-05T21:39:41.856Z,9.70
2022-10-05T21:42:14.413Z,9.85
2022-10-05T21:44:46.813Z,9.72
2022-10-05T21:47:19.493Z,9.82
2022-10-05T21:49:52.293Z,9.82
2022-10-05T21:52:26.597Z,9.83
2022-10-05T21:54:59.186Z,9.85
2022-10-05T21:57:33.952Z,9.71
2022-10-05T22:00:08.561Z,9.81
2022-10-05T22:02:41.196Z,9.83
2022-10-05T22:05:13.538Z,9.85
2022-10-05T22:07:47.582Z,9.85
2022-10-05T22:10:20.056Z,9.85
2022-10-05T22:12:52.521Z,9.77
2022-10-05T22:15:25.018Z,9.85
2022-10-05T22:17:57.905Z,9.87
2022-10-05T22:20:32.059Z,9.88
2022-10-05T22:23:05.984Z,9.81
2022-10-05T22:25:38.869Z,9.85
2022-10-05T22:28:15.182Z,9.76
2022-10-05T22:30:48.390Z,9.88
2022-10-05T22:33:20.813Z,9.89
2022-10-05T22:35:53.846Z,9.84
2022-10-05T22:38:28.121Z,9.89
2022-10-05T22:41:00.777Z,9.69
2022-10-05T22:43:33.296Z,9.68
2022-10-05T22:46:10.139Z,9.92
2022-10-05T22:48:43.346Z,9.92
2022-10-05T22:51:16.002Z,9.90
2022-10-05T22:53:50.414Z,9.82
2022-10-05T22:56:22.889Z,9.94
2022-10-05T22:58:55.482Z,9.90
2022-10-05T23:01:27.985Z,9.95
2022-10-05T23:04:00.455Z,9.91
2022-10-05T23:06:32.771Z,9.94
2022-10-05T23:09:06.804Z,9.96
2022-10-05T23:11:39.869Z,9.86
2022-10-05T23:14:12.362Z,9.86
2022-10-05T23:16:45.113Z,9.95
2022-10-05T23:19:17.662Z,9.82
2022-10-05T23:21:50.205Z,9.79
2022-10-05T23:24:24.128Z,9.98
2022-10-05T23:26:56.841Z,9.86
2022-10-05T23:29:29.807Z,9.97
2022-10-05T23:32:02.471Z,9.94
2022-10-05T23:34:35.073Z,9.97
2022-10-05T23:37:07.563Z,9.86
2022-10-05T23:39:41.469Z,9.98
2022-10-05T23:42:14.678Z,9.96
